Terminal Aerodrome Forecast
Issued by NWS Shreveport, LA

Current Version | Previous Version | Text Only | Print | Product List | Glossary On
Versions: 1 2 3 4 5 6 7 8 9 10 11 12 13 14 15 16
000
FTUS44 KSHV 211300 AAA
TAFTXK
TAF AMD
KTXK 211323Z 2113/2212 06005KT 3SM BR OVC045
     FM211600 14005KT P6SM SCT250
     FM211700 15006KT P6SM SCT035 SCT250
     FM220000 15005KT P6SM BKN250
     FM220800 17008KT 4SM BR OVC250=

USA.gov is the U.S. government's official web portal to all federal, state and local government web resources and services.